Strona główna
METAR-TAF:

METAR-TAF

Lotnisko :

Fourchambault

Nevers, Francja

Szerokość geograficzna: 47-00N, Długość geograficzna: 003-06E, wysokość: 180 m

Aktualna obserwacja pogody

Raport powstał 6 godziny i 35 minut temu, godzina 18:00 UTC
Wiatr 5 kt od wschód
Temperatura 16°C
Wilgotność 39%
Ciśnienie 1018 hPa
Widzialność 10 km lub więcej
Brak chmur poniżej 1500 m i brak chmur cumulonimbus

METAR: LFQG 041800Z AUTO 10005KT CAVOK 16/02 Q1018

czas: 02:35 (00:35 UTC)


TAF: brakujący

Obserwacja i prognoza pogody dla ponad 4000 lotnisk (raport METAR i TAF).

Dostępne stacje oznaczono żółtymi i czerwonymi punktami na mapie.

Najedź kursorem aby zobaczyć nazwę stacji.

Kliknij aby zobaczyć obserwacje i prognozy pogody.

Aby zmienić mapę: kliknij na zielony przycisk z czarnym krzyżykiem, aby powiększyć; na zielony przycisk z myślnikiem, aby pomniejszyć; na zielone strzałki, aby przejść do map sąsiednich.


METAR-TAF: